createdAt,value
2022-10-25T00:01:41.974Z,9.52
2022-10-25T00:04:09.194Z,9.60
2022-10-25T00:06:36.349Z,9.02
2022-10-25T00:09:03.734Z,8.77
2022-10-25T00:11:32.783Z,9.52
2022-10-25T00:14:04.836Z,9.68
2022-10-25T00:16:37.459Z,11.05
2022-10-25T00:19:05.873Z,10.45
2022-10-25T00:21:33.083Z,9.98
2022-10-25T00:24:00.302Z,12.70
2022-10-25T00:26:27.692Z,11.88
2022-10-25T00:28:55.963Z,10.13
2022-10-25T00:31:24.497Z,10.77
2022-10-25T00:33:51.996Z,11.38
2022-10-25T00:36:23.160Z,11.40
2022-10-25T00:38:50.980Z,12.45
2022-10-25T00:41:24.309Z,11.95
2022-10-25T00:44:34.197Z,13.13
2022-10-25T00:47:15.982Z,13.65
2022-10-25T00:49:44.292Z,13.32
2022-10-25T00:52:12.106Z,13.98
2022-10-25T00:54:49.204Z,12.57
2022-10-25T00:57:29.723Z,14.07
2022-10-25T00:59:56.994Z,13.70
2022-10-25T01:02:24.579Z,13.85
2022-10-25T01:04:52.921Z,14.40
2022-10-25T01:07:20.189Z,14.13
2022-10-25T01:09:47.707Z,15.13
2022-10-25T01:12:14.708Z,13.18
2022-10-25T01:14:47.035Z,13.48
2022-10-25T01:17:36.209Z,14.48
2022-10-25T01:20:31.498Z,14.52
2022-10-25T01:23:32.536Z,12.68
2022-10-25T01:26:49.925Z,13.32
2022-10-25T01:29:27.056Z,13.25
2022-10-25T01:32:35.987Z,12.27
2022-10-25T01:35:49.765Z,11.27
2022-10-25T01:38:58.402Z,10.65
2022-10-25T01:41:44.380Z,11.52
2022-10-25T01:44:20.694Z,11.52
2022-10-25T01:47:46.945Z,12.07
2022-10-25T01:50:28.755Z,11.70
2022-10-25T01:52:55.917Z,12.07
2022-10-25T01:55:34.905Z,11.13
2022-10-25T01:58:29.070Z,11.40
2022-10-25T02:01:40.215Z,12.88
2022-10-25T02:04:33.465Z,11.38
2022-10-25T02:07:34.142Z,12.80
2022-10-25T02:10:19.748Z,12.05
2022-10-25T02:13:17.134Z,13.10
2022-10-25T02:16:19.503Z,13.32
2022-10-25T02:18:52.762Z,12.90
2022-10-25T02:21:21.301Z,12.82
2022-10-25T02:23:49.958Z,11.45
2022-10-25T02:26:18.513Z,12.93
2022-10-25T02:28:48.058Z,11.38
2022-10-25T02:31:22.213Z,11.77
2022-10-25T02:33:49.354Z,10.77
2022-10-25T02:36:21.973Z,9.27
2022-10-25T02:38:51.378Z,8.40
2022-10-25T02:41:20.667Z,8.15
2022-10-25T02:43:47.936Z,7.70
2022-10-25T02:46:18.682Z,6.38
2022-10-25T02:48:46.545Z,5.80
2022-10-25T02:51:14.697Z,4.85
2022-10-25T02:53:42.268Z,4.70
2022-10-25T02:56:19.620Z,5.72
2022-10-25T02:58:48.721Z,5.13
2022-10-25T03:01:17.878Z,4.97
2022-10-25T03:03:46.026Z,5.40
2022-10-25T03:06:14.733Z,5.13
2022-10-25T03:08:43.720Z,5.05
2022-10-25T03:11:16.479Z,4.18
2022-10-25T03:13:43.725Z,4.32
2022-10-25T03:16:10.855Z,4.00
2022-10-25T03:18:38.316Z,3.85
2022-10-25T03:21:05.903Z,3.75
2022-10-25T03:23:33.878Z,3.88
2022-10-25T03:26:01.658Z,3.58
2022-10-25T03:28:30.188Z,3.28
2022-10-25T03:30:58.423Z,3.90
2022-10-25T03:33:26.054Z,4.03
2022-10-25T03:35:54.603Z,3.70
2022-10-25T03:38:22.403Z,3.28
2022-10-25T03:40:49.596Z,2.17
2022-10-25T03:43:16.805Z,2.40
2022-10-25T03:45:44.089Z,2.90
2022-10-25T03:48:11.190Z,2.70
2022-10-25T03:50:38.520Z,2.85
2022-10-25T03:53:06.288Z,2.38
2022-10-25T03:55:34.333Z,2.95
2022-10-25T03:58:01.432Z,3.13
2022-10-25T04:00:29.256Z,2.10
2022-10-25T04:03:01.720Z,2.75
2022-10-25T04:05:31.279Z,2.55
2022-10-25T04:07:59.773Z,2.42
2022-10-25T04:10:27.376Z,2.53
2022-10-25T04:12:55.286Z,2.85
2022-10-25T04:15:23.866Z,3.20
2022-10-25T04:17:52.880Z,2.85
2022-10-25T04:20:21.037Z,2.60
2022-10-25T04:22:55.836Z,2.78
2022-10-25T04:25:28.045Z,2.42
2022-10-25T04:27:55.345Z,2.38
2022-10-25T04:30:22.501Z,2.55
2022-10-25T04:32:49.989Z,2.92
2022-10-25T04:35:17.665Z,1.90
2022-10-25T04:37:44.852Z,3.28
2022-10-25T04:40:12.592Z,2.20
2022-10-25T04:42:39.706Z,2.28
2022-10-25T04:45:07.336Z,2.40
2022-10-25T04:47:35.289Z,2.63
2022-10-25T04:50:02.457Z,2.35
2022-10-25T04:52:30.475Z,2.05
2022-10-25T04:54:58.017Z,1.90
2022-10-25T04:57:25.878Z,1.90
2022-10-25T04:59:53.766Z,2.05
2022-10-25T05:02:20.870Z,2.40
2022-10-25T05:04:47.913Z,1.73
2022-10-25T05:07:18.788Z,1.92
2022-10-25T05:09:47.560Z,2.40
2022-10-25T05:12:15.397Z,1.88
2022-10-25T05:14:42.708Z,2.50
2022-10-25T05:17:09.721Z,2.03
2022-10-25T05:19:36.853Z,1.73
2022-10-25T05:22:03.998Z,1.80
2022-10-25T05:24:31.147Z,1.83
2022-10-25T05:26:58.355Z,1.75
2022-10-25T05:29:25.498Z,2.05
2022-10-25T05:31:52.861Z,1.90
2022-10-25T05:34:20.034Z,2.30
2022-10-25T05:36:47.238Z,2.78
2022-10-25T05:39:14.381Z,2.17
2022-10-25T05:41:41.479Z,3.20
2022-10-25T05:44:08.717Z,2.50
2022-10-25T05:46:35.837Z,2.17
2022-10-25T05:49:03.562Z,2.20
2022-10-25T05:51:36.247Z,2.13
2022-10-25T05:54:15.413Z,2.92
2022-10-25T05:56:43.357Z,4.03
2022-10-25T05:59:13.676Z,3.78
2022-10-25T06:01:46.230Z,4.05
2022-10-25T06:04:14.964Z,4.47
2022-10-25T06:06:43.790Z,4.22
2022-10-25T06:09:12.044Z,4.00
2022-10-25T06:11:40.015Z,4.45
2022-10-25T06:14:07.435Z,4.75
2022-10-25T06:16:37.057Z,3.80
2022-10-25T06:19:04.163Z,4.40
2022-10-25T06:21:31.481Z,3.65
2022-10-25T06:24:00.131Z,3.42
2022-10-25T06:26:29.807Z,3.92
2022-10-25T06:29:01.229Z,3.53
2022-10-25T06:31:29.876Z,3.88
2022-10-25T06:33:58.659Z,3.40
2022-10-25T06:36:27.797Z,4.28
2022-10-25T06:38:55.191Z,4.22
2022-10-25T06:41:25.926Z,4.30
2022-10-25T06:43:53.139Z,4.30
2022-10-25T06:46:33.232Z,4.85
2022-10-25T06:49:04.717Z,4.05
2022-10-25T06:51:33.436Z,4.85
2022-10-25T06:54:02.592Z,3.95
2022-10-25T06:56:29.717Z,4.15
2022-10-25T06:58:57.174Z,4.03
2022-10-25T07:01:25.685Z,5.18
2022-10-25T07:03:54.916Z,5.05
2022-10-25T07:06:29.480Z,5.45
2022-10-25T07:09:01.195Z,4.57
2022-10-25T07:11:31.564Z,4.57
2022-10-25T07:14:00.451Z,3.72
2022-10-25T07:16:28.967Z,4.70
2022-10-25T07:19:04.353Z,4.35
2022-10-25T07:21:33.316Z,3.85
2022-10-25T07:24:00.928Z,4.32
2022-10-25T07:26:31.858Z,4.32
2022-10-25T07:29:01.443Z,3.20
2022-10-25T07:31:32.729Z,2.83
2022-10-25T07:34:02.234Z,2.92
2022-10-25T07:36:29.879Z,2.83
2022-10-25T07:38:57.151Z,2.70
2022-10-25T07:41:25.974Z,1.98
2022-10-25T07:43:53.043Z,2.28
2022-10-25T07:46:20.218Z,2.15
2022-10-25T07:48:47.308Z,2.28
2022-10-25T07:51:17.138Z,2.67
2022-10-25T07:53:44.231Z,7.60
2022-10-25T07:56:22.157Z,3.70
2022-10-25T07:58:54.004Z,2.45
2022-10-25T08:01:28.009Z,2.05
2022-10-25T08:03:55.780Z,1.77
2022-10-25T08:06:26.576Z,1.35
2022-10-25T08:08:53.945Z,2.03
2022-10-25T08:11:21.442Z,1.70
2022-10-25T08:13:50.779Z,1.00
2022-10-25T08:16:18.557Z,0.55
2022-10-25T08:18:46.288Z,0.90
2022-10-25T08:21:13.595Z,0.82
2022-10-25T08:23:41.007Z,0.50
2022-10-25T08:26:08.144Z,1.00
2022-10-25T08:28:35.259Z,0.90
2022-10-25T08:31:04.389Z,0.70
2022-10-25T08:33:32.747Z,0.70
2022-10-25T08:36:03.997Z,0.80
2022-10-25T08:38:31.205Z,1.13
2022-10-25T08:41:19.183Z,1.00
2022-10-25T08:44:12.739Z,0.98
2022-10-25T08:46:57.210Z,0.73
2022-10-25T08:49:43.565Z,0.85
2022-10-25T08:52:44.702Z,0.60
2022-10-25T08:55:44.691Z,0.70
2022-10-25T08:58:43.157Z,0.80
2022-10-25T09:01:22.772Z,0.88
2022-10-25T09:03:50.030Z,0.88
2022-10-25T09:06:38.344Z,0.60
2022-10-25T09:09:33.653Z,0.80
2022-10-25T09:12:31.201Z,0.95
2022-10-25T09:15:28.231Z,0.70
2022-10-25T09:18:22.364Z,1.23
2022-10-25T09:20:52.132Z,0.70
2022-10-25T09:23:30.177Z,0.70
2022-10-25T09:26:16.779Z,0.95
2022-10-25T09:29:01.559Z,0.73
2022-10-25T09:31:37.531Z,0.80
2022-10-25T09:34:09.345Z,0.98
2022-10-25T09:36:56.896Z,0.75
2022-10-25T09:39:44.926Z,0.80
2022-10-25T09:42:27.858Z,0.70
2022-10-25T09:45:14.748Z,0.90
2022-10-25T09:48:11.259Z,0.95
2022-10-25T09:53:24.641Z,9.13
2022-10-25T09:56:00.287Z,41.55
2022-10-25T10:01:04.516Z,1.35
2022-10-25T10:03:35.587Z,1.23
2022-10-25T10:06:32.360Z,0.93
2022-10-25T10:09:06.121Z,0.75
2022-10-25T10:11:35.930Z,0.70
2022-10-25T10:14:18.882Z,0.60
2022-10-25T10:16:51.060Z,0.70
2022-10-25T10:19:24.801Z,0.60
2022-10-25T10:21:58.724Z,0.73
2022-10-25T10:24:34.789Z,0.57
2022-10-25T10:27:24.557Z,1.30
2022-10-25T10:29:56.052Z,1.08
2022-10-25T10:32:36.797Z,0.90
2022-10-25T10:35:08.495Z,0.70
2022-10-25T10:37:35.591Z,0.73
2022-10-25T10:40:08.312Z,0.57
2022-10-25T10:42:38.866Z,0.77
2022-10-25T10:45:08.785Z,0.50
2022-10-25T10:47:45.974Z,0.68
2022-10-25T10:50:25.599Z,0.60
2022-10-25T10:53:29.569Z,0.77
2022-10-25T10:56:08.225Z,0.60
2022-10-25T10:58:39.104Z,1.13
2022-10-25T11:01:18.933Z,0.70
2022-10-25T11:03:58.932Z,0.82
2022-10-25T11:06:32.604Z,0.77
2022-10-25T11:09:23.645Z,0.70
2022-10-25T11:12:12.221Z,0.47
2022-10-25T11:14:39.365Z,0.55
2022-10-25T11:17:28.865Z,0.50
2022-10-25T11:20:30.148Z,0.60
2022-10-25T11:23:36.630Z,0.50
2022-10-25T11:26:26.593Z,0.73
2022-10-25T11:29:41.817Z,0.68
2022-10-25T11:32:47.557Z,0.68
2022-10-25T11:35:35.407Z,0.82
2022-10-25T11:38:18.150Z,0.77
2022-10-25T11:41:16.011Z,0.63
2022-10-25T11:44:07.093Z,0.43
2022-10-25T11:46:57.373Z,0.47
2022-10-25T11:49:56.750Z,0.50
2022-10-25T11:52:57.259Z,0.55
2022-10-25T11:55:40.993Z,0.35
2022-10-25T11:59:00.470Z,0.70
2022-10-25T12:01:57.327Z,0.63
2022-10-25T12:05:12.015Z,0.50
2022-10-25T12:08:03.809Z,0.50
2022-10-25T12:13:34.313Z,0.80
2022-10-25T12:16:05.172Z,0.63
2022-10-25T12:18:48.080Z,0.80
2022-10-25T12:21:43.644Z,0.70
2022-10-25T12:24:20.835Z,0.50
2022-10-25T12:26:52.872Z,0.57
2022-10-25T12:29:33.449Z,0.45
2022-10-25T12:32:03.649Z,0.50
2022-10-25T12:34:53.547Z,0.50
2022-10-25T12:37:51.280Z,0.80
2022-10-25T12:43:21.488Z,0.50
2022-10-25T12:46:42.432Z,0.70
2022-10-25T12:49:15.262Z,0.60
2022-10-25T12:51:52.278Z,0.70
2022-10-25T12:54:44.255Z,0.50
2022-10-25T12:57:56.549Z,0.85
2022-10-25T13:00:24.186Z,0.30
2022-10-25T13:03:21.914Z,0.80
2022-10-25T13:06:20.774Z,0.73
2022-10-25T13:08:49.048Z,0.65
2022-10-25T13:11:16.295Z,0.82
2022-10-25T13:13:56.263Z,0.50
2022-10-25T13:16:34.241Z,0.70
2022-10-25T13:19:49.339Z,0.63
2022-10-25T13:22:38.125Z,0.77
2022-10-25T13:25:37.896Z,0.40
2022-10-25T13:28:11.083Z,0.70
2022-10-25T13:30:38.232Z,0.82
2022-10-25T13:33:33.289Z,0.50
2022-10-25T13:36:03.536Z,0.70
2022-10-25T13:38:39.086Z,0.75
2022-10-25T13:41:19.332Z,0.60
2022-10-25T13:44:05.235Z,1.05
2022-10-25T13:46:41.426Z,0.90
2022-10-25T13:49:43.437Z,0.60
2022-10-25T13:52:34.011Z,1.15
2022-10-25T13:55:06.318Z,1.10
2022-10-25T13:57:47.667Z,0.60
2022-10-25T14:00:41.627Z,1.02
2022-10-25T14:03:08.803Z,0.63
2022-10-25T14:05:54.242Z,0.52
2022-10-25T14:08:54.829Z,0.55
2022-10-25T14:11:37.624Z,1.17
2022-10-25T14:14:35.021Z,0.60
2022-10-25T14:17:31.491Z,0.88
2022-10-25T14:20:19.835Z,1.48
2022-10-25T14:22:58.104Z,0.80
2022-10-25T14:25:39.727Z,0.70
2022-10-25T14:28:17.253Z,0.73
2022-10-25T14:30:50.187Z,0.75
2022-10-25T14:33:36.752Z,0.75
2022-10-25T14:36:06.438Z,0.70
2022-10-25T14:39:04.151Z,0.57
2022-10-25T14:41:35.087Z,0.80
2022-10-25T14:44:03.287Z,0.80
2022-10-25T14:46:30.841Z,0.60
2022-10-25T14:48:59.969Z,0.80
2022-10-25T14:51:41.012Z,0.95
2022-10-25T14:54:33.750Z,0.82
2022-10-25T14:57:08.318Z,0.70
2022-10-25T14:59:53.750Z,0.60
2022-10-25T15:02:39.956Z,0.68
2022-10-25T15:05:07.715Z,1.65
2022-10-25T15:07:43.910Z,0.63
2022-10-25T15:10:43.926Z,0.70
2022-10-25T15:13:26.714Z,0.50
2022-10-25T15:15:54.458Z,0.70
2022-10-25T15:18:26.782Z,0.90
2022-10-25T15:21:17.624Z,0.90
2022-10-25T15:24:12.790Z,0.70
2022-10-25T15:26:50.803Z,1.25
2022-10-25T15:29:41.973Z,1.00
2022-10-25T15:32:17.441Z,0.70
2022-10-25T15:34:49.497Z,1.02
2022-10-25T15:37:19.618Z,1.55
2022-10-25T15:39:49.854Z,1.48
2022-10-25T15:42:18.331Z,1.52
2022-10-25T15:44:45.898Z,1.15
2022-10-25T15:47:41.229Z,0.80
2022-10-25T15:50:19.752Z,1.35
2022-10-25T15:52:47.058Z,1.13
2022-10-25T15:55:33.096Z,1.10
2022-10-25T15:58:00.818Z,0.90
2022-10-25T16:00:30.470Z,0.98
2022-10-25T16:02:58.848Z,1.27
2022-10-25T16:05:33.512Z,1.10
2022-10-25T16:08:01.082Z,1.20
2022-10-25T16:10:30.764Z,0.80
2022-10-25T16:13:04.875Z,1.00
2022-10-25T16:15:32.772Z,1.05
2022-10-25T16:18:00.059Z,0.85
2022-10-25T16:20:30.246Z,0.88
2022-10-25T16:22:58.092Z,0.80
2022-10-25T16:25:30.561Z,1.13
2022-10-25T16:28:00.517Z,1.33
2022-10-25T16:30:36.565Z,1.30
2022-10-25T16:33:05.772Z,1.10
2022-10-25T16:35:33.283Z,1.10
2022-10-25T16:38:00.722Z,1.20
2022-10-25T16:40:28.382Z,1.13
2022-10-25T16:42:55.501Z,1.52
2022-10-25T16:45:30.318Z,1.50
2022-10-25T16:47:58.484Z,1.58
2022-10-25T16:50:29.160Z,1.40
2022-10-25T16:53:03.761Z,1.10
2022-10-25T16:55:32.021Z,1.40
2022-10-25T16:58:00.835Z,1.80
2022-10-25T17:00:32.185Z,1.50
2022-10-25T17:02:59.730Z,1.30
2022-10-25T17:05:30.779Z,1.30
2022-10-25T17:07:58.746Z,1.48
2022-10-25T17:10:27.166Z,1.45
2022-10-25T17:13:03.434Z,1.50
2022-10-25T17:15:31.999Z,1.27
2022-10-25T17:17:59.455Z,1.40
2022-10-25T17:20:26.820Z,1.17
2022-10-25T17:22:54.715Z,1.83
2022-10-25T17:25:22.958Z,1.80
2022-10-25T17:27:52.181Z,1.90
2022-10-25T17:30:20.550Z,1.65
2022-10-25T17:32:48.853Z,1.80
2022-10-25T17:35:16.949Z,1.42
2022-10-25T17:37:44.713Z,1.50
2022-10-25T17:40:16.689Z,1.67
2022-10-25T17:42:44.363Z,1.60
2022-10-25T17:45:11.994Z,1.88
2022-10-25T17:47:42.615Z,2.40
2022-10-25T17:50:11.783Z,1.95
2022-10-25T17:52:41.821Z,1.75
2022-10-25T17:55:15.426Z,2.22
2022-10-25T17:57:44.735Z,2.15
2022-10-25T18:00:14.652Z,2.58
2022-10-25T18:02:44.090Z,1.75
2022-10-25T18:05:20.542Z,2.25
2022-10-25T18:07:49.539Z,2.28
2022-10-25T18:10:17.345Z,2.20
2022-10-25T18:12:48.583Z,3.75
2022-10-25T18:15:16.876Z,2.65
2022-10-25T18:17:47.057Z,2.15
2022-10-25T18:20:15.622Z,2.25
2022-10-25T18:22:43.598Z,1.77
2022-10-25T18:25:12.302Z,1.77
2022-10-25T18:27:40.240Z,2.15
2022-10-25T18:30:09.249Z,2.08
2022-10-25T18:32:36.962Z,2.17
2022-10-25T18:35:05.279Z,1.85
2022-10-25T18:37:33.636Z,1.90
2022-10-25T18:40:01.503Z,2.10
2022-10-25T18:42:31.315Z,2.15
2022-10-25T18:44:59.288Z,2.10
2022-10-25T18:47:27.208Z,2.28
2022-10-25T18:49:55.480Z,2.35
2022-10-25T18:52:24.978Z,2.47
2022-10-25T18:54:53.601Z,2.75
2022-10-25T18:57:21.776Z,2.22
2022-10-25T18:59:49.941Z,2.53
2022-10-25T19:02:17.966Z,2.97
2022-10-25T19:04:46.192Z,2.92
2022-10-25T19:07:13.959Z,3.10
2022-10-25T19:09:41.581Z,4.43
2022-10-25T19:12:09.784Z,5.00
2022-10-25T19:14:38.510Z,4.68
2022-10-25T19:17:06.494Z,4.40
2022-10-25T19:19:34.260Z,4.00
2022-10-25T19:22:02.328Z,4.20
2022-10-25T19:24:31.185Z,3.38
2022-10-25T19:27:01.252Z,10.85
2022-10-25T19:29:29.279Z,6.18
2022-10-25T19:31:58.032Z,6.82
2022-10-25T19:34:29.026Z,5.80
2022-10-25T19:36:58.150Z,5.47
2022-10-25T19:39:27.267Z,6.35
2022-10-25T19:41:55.318Z,4.85
2022-10-25T19:44:23.917Z,5.22
2022-10-25T19:46:55.195Z,4.22
2022-10-25T19:49:23.067Z,4.35
2022-10-25T19:51:51.225Z,4.38
2022-10-25T19:54:19.034Z,4.38
2022-10-25T19:56:47.582Z,4.07
2022-10-25T19:59:18.832Z,5.38
2022-10-25T20:01:47.898Z,4.32
2022-10-25T20:04:17.382Z,5.38
2022-10-25T20:06:45.309Z,4.60
2022-10-25T20:09:13.980Z,4.68
2022-10-25T20:11:42.723Z,5.47
2022-10-25T20:14:14.577Z,6.10
2022-10-25T20:16:42.623Z,5.82
2022-10-25T20:19:14.832Z,6.25
2022-10-25T20:21:43.030Z,5.53
2022-10-25T20:24:11.181Z,5.43
2022-10-25T20:26:42.180Z,5.60
2022-10-25T20:29:21.449Z,5.88
2022-10-25T20:31:50.936Z,5.65
2022-10-25T20:34:20.719Z,4.60
2022-10-25T20:36:49.403Z,5.25
2022-10-25T20:39:17.561Z,5.15
2022-10-25T20:41:45.227Z,4.88
2022-10-25T20:44:18.073Z,4.60
2022-10-25T20:46:45.656Z,4.35
2022-10-25T20:49:14.420Z,4.72
2022-10-25T20:51:41.897Z,4.50
2022-10-25T20:54:10.015Z,4.63
2022-10-25T20:56:39.459Z,5.55
2022-10-25T20:59:07.122Z,4.80
2022-10-25T21:01:34.326Z,5.40
2022-10-25T21:04:01.428Z,5.07
2022-10-25T21:06:28.562Z,4.47
2022-10-25T21:08:55.680Z,4.47
2022-10-25T21:11:22.722Z,5.22
2022-10-25T21:13:49.773Z,4.53
2022-10-25T21:16:17.584Z,4.28
2022-10-25T21:18:44.792Z,5.07
2022-10-25T21:21:18.282Z,4.13
2022-10-25T21:23:47.058Z,4.32
2022-10-25T21:26:14.340Z,3.90
2022-10-25T21:28:41.972Z,4.10
2022-10-25T21:31:12.646Z,4.28
2022-10-25T21:33:42.072Z,3.97
2022-10-25T21:36:12.673Z,4.70
2022-10-25T21:38:40.515Z,4.15
2022-10-25T21:41:14.546Z,4.68
2022-10-25T21:43:45.322Z,4.78
2022-10-25T21:46:14.284Z,4.53
2022-10-25T21:48:42.131Z,4.85
2022-10-25T21:51:09.506Z,4.70
2022-10-25T21:53:36.675Z,4.97
2022-10-25T21:56:13.660Z,5.03
2022-10-25T21:58:43.575Z,4.97
2022-10-25T22:01:20.340Z,4.70
2022-10-25T22:03:48.026Z,4.78
2022-10-25T22:06:21.796Z,4.93
2022-10-25T22:08:49.666Z,5.22
2022-10-25T22:11:23.864Z,5.05
2022-10-25T22:13:56.852Z,5.03
2022-10-25T22:16:24.750Z,6.47
2022-10-25T22:19:04.831Z,6.43
2022-10-25T22:21:35.931Z,5.53
2022-10-25T22:24:04.748Z,6.72
2022-10-25T22:26:32.098Z,6.40
2022-10-25T22:29:00.180Z,6.03
2022-10-25T22:31:29.623Z,5.70
2022-10-25T22:34:01.931Z,6.13
2022-10-25T22:36:32.702Z,5.90
2022-10-25T22:39:00.579Z,5.18
2022-10-25T22:41:29.867Z,4.53
2022-10-25T22:43:58.147Z,4.30
2022-10-25T22:46:34.648Z,4.20
2022-10-25T22:49:09.294Z,4.13
2022-10-25T22:51:38.002Z,5.32
2022-10-25T22:54:05.434Z,4.50
2022-10-25T22:56:33.394Z,4.90
2022-10-25T22:59:04.362Z,4.38
2022-10-25T23:01:37.843Z,5.13
2022-10-25T23:04:08.637Z,5.75
2022-10-25T23:06:39.093Z,5.18
2022-10-25T23:09:09.429Z,4.63
2022-10-25T23:11:39.755Z,4.50
2022-10-25T23:14:13.352Z,5.20
2022-10-25T23:16:43.958Z,4.95
2022-10-25T23:19:11.029Z,4.82
2022-10-25T23:21:38.256Z,4.80
2022-10-25T23:24:06.018Z,5.00
2022-10-25T23:26:36.414Z,5.32
2022-10-25T23:29:04.460Z,4.88
2022-10-25T23:31:32.401Z,4.60
2022-10-25T23:34:00.938Z,5.35
2022-10-25T23:36:37.559Z,5.13
2022-10-25T23:39:07.387Z,5.10
2022-10-25T23:41:34.645Z,4.55
2022-10-25T23:44:01.917Z,4.90
2022-10-25T23:46:28.956Z,4.90
2022-10-25T23:48:56.096Z,5.28
2022-10-25T23:51:23.192Z,4.53
2022-10-25T23:53:50.368Z,4.70
2022-10-25T23:56:17.424Z,4.45
2022-10-25T23:58:44.485Z,5.97
